Δεν απαιτείται κάποια ιδιαίτερη επαγρύπνηση.    Δεν υπάρχουν προειδοποιήσεις επικίνδυνων καιρικών φαινομένων

Οι άλλοι ιστότοποί μου:

SYKIA HOMEWEATHERSTATIONsikeaweather.alinos.eu

SYKIA METEOTEMPLATEsykiameteo.alinos.eu

alinos.eualinos.eu



Αναφορές γειτονικών METAR

   
LGEL - Elefsis (hel-Afb, Greece
Απόσταση από τον σταθμό: Α 77 km
Ενημερώθηκε: 21-10-2018 01:20
Μερικώς νεφελώδης  
Μερικώς νεφελώδης  
   Ανεμος: Απνοια
Ανεμος: Απνοια
Θερμοκρασία: 19°C
Σημείο Δρόσου: 14°C
Υγρασία: 73%
Βαρόμετρο: 1018 hPa
Νεφώσεις: Μερικώς νεφελώδης
Ορατότητα: More than 10 km
Στοιχεία νεφών: Διάσπαρτα νέφη 3000 ft,
Μερικώς νεφελώδης 7000 ft
LGEL 202220Z 00000KT 9999 FEW030 SCT070 19/14 Q1018
LGRX - Araxos (civ/Afb), Greece
Απόσταση από τον σταθμό: Δ 110 km
Ενημερώθηκε: 21-10-2018 00:50
Αίθριος  
Αίθριος  
   Ανεμος: Απνοια
Ανεμος: Απνοια
Θερμοκρασία: 15°C
Σημείο Δρόσου: 14°C
Υγρασία: 94%
Βαρόμετρο: 1016 hPa
Ορατότητα: More than 10 km
Στοιχεία νεφών: Αίθριος
LGRX 202150Z 00000KT CAVOK 15/14 Q1016
LGAV - Athens/Elef-Ven, Greece
Απόσταση από τον σταθμό: Α 113 km
Ενημερώθηκε: 21-10-2018 01:20
Διάσπαρτα νέφη  
Διάσπαρτα νέφη  
   Ανεμος: ΒΑ 18.5 km/h
Ανεμος: ΒΑ 18.5 km/h
Θερμοκρασία: 17°C
Σημείο Δρόσου: 14°C
Υγρασία: 83%
Βαρόμετρο: 1018 hPa
Νεφώσεις: Διάσπαρτα νέφη
Ορατότητα: More than 10 km
Στοιχεία νεφών: Διάσπαρτα νέφη 3000 ft
LGAV 202220Z 04010KT 9999 FEW030 17/14 Q1018 NOSIG
LGAD - Andravida (civ/A, Greece
Απόσταση από τον σταθμό: Δ 124 km
Ενημερώθηκε: 21-10-2018 01:20
Αίθριος  
Αίθριος  
   Ανεμος: Απνοια
Ανεμος: Απνοια
Θερμοκρασία: 15°C
Σημείο Δρόσου: 13°C
Υγρασία: 88%
Βαρόμετρο: 1016 hPa
Ορατότητα: More than 10 km
Στοιχεία νεφών: Αίθριος
LGAD 202220Z 00000KT CAVOK 15/13 Q1016
LGKL - Kalamata (hel-Af, Greece
Απόσταση από τον σταθμό: ΝΝΔ 124 km
Ενημερώθηκε: 21-10-2018 01:20
  
  
   Ανεμος: μεταβλητός 5.6 km/h
Ανεμος: μεταβλητός 5.6 km/h
Θερμοκρασία: 16°C
Σημείο Δρόσου: 14°C
Υγρασία: 88%
Βαρόμετρο: 1016 hPa
LGKL 202220Z AUTO VRB03KT //// // ////// 16/14 Q1016 RE//
LGBL - Nea Anchialos, Greece
Απόσταση από τον σταθμό: Β 129 km
Ενημερώθηκε: 20-10-2018 23:50
ΟΧΙ Τωρινό
Σχεδόν νεφελώδης  
Σχεδόν νεφελώδης  
   Ανεμος: Βόρια 5.6 km/h
Ανεμος: Βόρια 5.6 km/h
Θερμοκρασία: 18°C
Σημείο Δρόσου: 12°C
Υγρασία: 68%
Βαρόμετρο: 1019 hPa
Νεφώσεις: Σχεδόν νεφελώδης
Ορατότητα: More than 10 km
Στοιχεία νεφών: Διάσπαρτα νέφη 2000 ft,
Σχεδόν νεφελώδης 8000 ft
LGBL 202050Z 35003KT 9999 FEW020 BKN080 18/12 Q1019

Αρχική γραφή από  Saratoga-weather.org Προσαρμογή στον ιστότοπο από  Weerstation Leuven

Βλέπε επίσης τις ενημερώσεις τού σταθμού μας στα παρακάτω δίκτυα:

European Weather Network

Weather Underground

AWEKAS

Citizen Weather Observer Program (CWOP)

HAMweather, WeatherForYou, PWS Weather

UK Metoffice

Equipment we use:

Μετεωρολογικός σταθμός
Davis Wireless Vantage Pro2

Davis Wireless Vantage Pro2